Time;durP1;ratioP1;P1;durP2;ratioP2;P2;SDS_P1;SDS_P2;PMS_P1;PMS_P2;Temp;Humidity;BMP_temperature;BMP_pressure;BME280_temperature;BME280_humidity;BME280_pressure;Samples;Min_cycle;Max_cycle;Signal;HPM_P1;HPM_P2
2021/01/23 00:02:03;;;;;;;26.23;10.73;;;1.00;95.90;;;;;;4971722;28;20027;-92
2021/01/23 00:04:29;;;;;;;22.75;10.50;;;1.00;95.60;;;;;;4978950;28;20607;-92
2021/01/23 00:06:54;;;;;;;24.20;10.85;;;1.00;95.50;;;;;;4976451;28;20035;-93
2021/01/23 00:09:20;;;;;;;24.73;11.23;;;1.00;95.50;;;;;;4970320;28;20034;-92
2021/01/23 00:11:46;;;;;;;23.77;11.18;;;0.90;95.50;;;;;;4970622;28;20483;-92
2021/01/23 00:14:11;;;;;;;21.10;10.32;;;0.90;95.50;;;;;;4970258;28;20030;-92
2021/01/23 00:16:37;;;;;;;25.67;11.80;;;0.90;95.50;;;;;;4984817;28;20035;-93
2021/01/23 00:19:02;;;;;;;21.17;10.45;;;0.90;95.50;;;;;;5007102;28;20068;-94
2021/01/23 00:21:28;;;;;;;22.73;10.57;;;0.90;95.50;;;;;;4970554;28;20479;-93
2021/01/23 00:23:53;;;;;;;21.75;10.05;;;1.00;95.50;;;;;;4970408;28;20065;-90
2021/01/23 00:26:19;;;;;;;25.17;10.77;;;1.00;95.50;;;;;;4973239;28;20077;-92
2021/01/23 00:28:44;;;;;;;23.60;9.77;;;0.90;95.40;;;;;;4975519;28;20114;-93
2021/01/23 00:31:10;;;;;;;28.77;11.63;;;1.00;95.50;;;;;;4987099;28;20553;-90
2021/01/23 00:33:35;;;;;;;18.13;9.45;;;1.00;95.50;;;;;;4973797;28;20038;-92
2021/01/23 00:36:01;;;;;;;21.92;10.73;;;1.00;95.40;;;;;;4969810;28;20035;-92
2021/01/23 00:38:27;;;;;;;25.23;10.15;;;1.00;95.40;;;;;;4977927;28;20022;-92
2021/01/23 00:40:52;;;;;;;23.48;10.25;;;1.00;95.40;;;;;;4966026;28;20023;-91
2021/01/23 00:43:18;;;;;;;25.92;10.40;;;1.00;95.30;;;;;;4993848;28;20087;-93
2021/01/23 00:45:43;;;;;;;21.60;9.55;;;1.00;95.30;;;;;;4973026;28;20530;-90
2021/01/23 00:48:11;;;;;;;21.17;10.43;;;1.00;95.30;;;;;;5000625;28;20036;-89
2021/01/23 00:50:36;;;;;;;23.00;10.38;;;1.00;95.40;;;;;;4996923;28;20069;-90
2021/01/23 00:53:03;;;;;;;19.70;9.52;;;1.00;95.40;;;;;;4973451;28;20076;-89
2021/01/23 00:55:28;;;;;;;27.92;10.82;;;1.00;95.40;;;;;;4972275;28;20066;-90
2021/01/23 00:57:54;;;;;;;24.30;11.38;;;1.00;95.40;;;;;;4976777;28;20112;-91
2021/01/23 01:00:20;;;;;;;25.75;11.63;;;1.00;95.40;;;;;;4996807;28;20073;-92
2021/01/23 01:02:45;;;;;;;24.48;10.43;;;1.10;95.40;;;;;;4974757;28;20027;-94
2021/01/23 01:05:11;;;;;;;22.90;12.30;;;1.00;95.40;;;;;;4982088;28;20072;-90
2021/01/23 01:07:36;;;;;;;23.88;12.18;;;1.10;95.40;;;;;;5064483;28;20540;-90
2021/01/23 01:10:03;;;;;;;26.85;10.85;;;1.10;95.40;;;;;;4973938;28;20433;-90
2021/01/23 01:12:29;;;;;;;22.13;12.43;;;1.10;95.30;;;;;;4973013;28;20092;-88
2021/01/23 01:14:54;;;;;;;25.08;11.38;;;1.10;95.30;;;;;;5067462;28;20029;-91
2021/01/23 01:17:19;;;;;;;21.80;10.80;;;1.10;95.30;;;;;;5006348;28;20039;-91
2021/01/23 01:19:45;;;;;;;25.65;13.02;;;1.10;95.30;;;;;;4968019;28;20110;-91
2021/01/23 01:22:11;;;;;;;25.08;12.85;;;1.20;95.30;;;;;;5012865;28;20385;-92
2021/01/23 01:24:36;;;;;;;24.13;12.77;;;1.20;95.30;;;;;;5019200;28;20360;-91
2021/01/23 01:27:02;;;;;;;24.25;13.05;;;1.20;95.40;;;;;;5016437;28;20027;-92
2021/01/23 01:29:28;;;;;;;24.70;13.23;;;1.20;95.40;;;;;;4997552;28;20024;-91
2021/01/23 01:31:53;;;;;;;23.70;13.52;;;1.20;95.40;;;;;;4978071;28;20034;-93
2021/01/23 01:34:19;;;;;;;25.10;12.63;;;1.20;95.40;;;;;;4984757;28;20031;-91
2021/01/23 01:36:44;;;;;;;28.17;11.45;;;1.20;95.40;;;;;;4987301;28;20438;-91
2021/01/23 01:39:10;;;;;;;29.52;13.85;;;1.20;95.40;;;;;;4985180;28;20038;-91
2021/01/23 01:41:39;;;;;;;23.42;11.82;;;1.30;95.40;;;;;;4988748;28;20024;-93
2021/01/23 01:44:06;;;;;;;23.65;11.65;;;1.20;95.40;;;;;;4970418;28;20118;-93
2021/01/23 01:46:32;;;;;;;25.95;12.43;;;1.20;95.70;;;;;;4974639;28;20023;-93
2021/01/23 01:48:59;;;;;;;26.40;13.13;;;1.20;95.50;;;;;;4987992;28;20470;-90
2021/01/23 01:51:26;;;;;;;30.15;14.45;;;1.20;95.40;;;;;;4980909;28;20079;-91
2021/01/23 01:53:52;;;;;;;27.27;14.23;;;1.30;95.50;;;;;;4989827;28;20033;-92
2021/01/23 01:56:18;;;;;;;25.17;12.05;;;1.30;95.50;;;;;;5060010;28;20063;-92
2021/01/23 01:58:43;;;;;;;28.52;14.40;;;1.30;95.50;;;;;;4976095;28;20039;-93
2021/01/23 02:01:09;;;;;;;24.13;13.20;;;1.30;95.50;;;;;;5026188;28;20125;-92
2021/01/23 02:03:44;;;;;;;25.92;14.02;;;1.30;95.40;;;;;;4981096;28;20023;-92
2021/01/23 02:06:15;;;;;;;25.77;14.40;;;1.30;95.40;;;;;;4977690;28;20037;-91
2021/01/23 02:08:52;;;;;;;24.05;12.88;;;1.30;95.40;;;;;;4955899;28;20023;-94
2021/01/23 02:11:31;;;;;;;28.90;14.13;;;1.30;95.50;;;;;;4979263;28;20042;-92
2021/01/23 02:14:01;;;;;;;21.58;13.65;;;1.20;95.50;;;;;;4971473;28;20027;-92
2021/01/23 02:16:34;;;;;;;26.33;12.85;;;1.30;95.50;;;;;;4970530;28;20057;-92
2021/01/23 02:19:16;;;;;;;28.58;13.93;;;1.30;95.50;;;;;;4982047;28;20028;-92
2021/01/23 02:22:03;;;;;;;24.17;12.43;;;1.30;95.60;;;;;;5001074;28;20030;-94
2021/01/23 02:24:30;;;;;;;24.08;13.52;;;1.30;95.60;;;;;;4972747;28;20573;-95
2021/01/23 02:27:01;;;;;;;23.95;13.80;;;1.30;95.60;;;;;;4975115;28;20506;-93
2021/01/23 02:29:40;;;;;;;23.02;12.15;;;1.30;95.60;;;;;;4975255;28;20035;-94
2021/01/23 02:32:06;;;;;;;23.92;13.57;;;1.40;95.70;;;;;;4971704;28;20033;-93
2021/01/23 02:34:33;;;;;;;25.63;12.80;;;1.40;95.70;;;;;;4977695;28;20422;-93
2021/01/23 02:37:00;;;;;;;28.67;13.20;;;1.50;95.70;;;;;;4973035;28;20553;-93
2021/01/23 02:39:27;;;;;;;21.48;12.73;;;1.50;95.70;;;;;;4970914;28;20031;-92
2021/01/23 02:41:53;;;;;;;21.45;12.50;;;1.50;95.80;;;;;;4970355;28;20364;-94
2021/01/23 02:44:19;;;;;;;19.77;11.48;;;1.60;95.80;;;;;;4974369;28;20765;-93
2021/01/23 02:46:47;;;;;;;23.20;13.25;;;1.60;95.70;;;;;;4977396;28;20026;-95
2021/01/23 02:49:13;;;;;;;23.95;12.60;;;1.60;95.70;;;;;;4980135;28;20035;-94
2021/01/23 02:52:01;;;;;;;25.60;12.55;;;1.70;95.80;;;;;;4965658;28;20055;-94
2021/01/23 02:54:44;;;;;;;21.52;11.52;;;1.70;95.80;;;;;;4970432;28;20034;-92
2021/01/23 02:57:11;;;;;;;23.40;11.95;;;1.80;95.80;;;;;;4956014;28;20047;-92
2021/01/23 02:59:39;;;;;;;22.08;12.35;;;1.80;95.70;;;;;;5013826;28;20058;-92
2021/01/23 03:02:09;;;;;;;21.75;11.38;;;1.80;95.80;;;;;;4979255;28;20065;-93
2021/01/23 03:04:36;;;;;;;24.98;11.52;;;1.90;95.80;;;;;;5044889;28;20028;-93
2021/01/23 03:07:02;;;;;;;26.35;12.35;;;1.90;95.70;;;;;;4969952;28;20115;-93
2021/01/23 03:09:27;;;;;;;23.02;12.50;;;2.00;95.70;;;;;;4989897;28;20478;-92
2021/01/23 03:11:53;;;;;;;20.70;10.82;;;2.10;95.70;;;;;;4970384;28;20044;-93
2021/01/23 03:14:20;;;;;;;19.58;11.40;;;2.10;96.00;;;;;;4974752;28;20035;-93
2021/01/23 03:16:49;;;;;;;21.10;10.00;;;2.10;95.60;;;;;;4963359;28;20169;-92
2021/01/23 03:19:15;;;;;;;22.23;10.50;;;2.20;95.60;;;;;;4966109;28;20030;-92
2021/01/23 03:21:41;;;;;;;17.55;10.85;;;2.20;95.60;;;;;;4974293;28;20035;-92
2021/01/23 03:24:07;;;;;;;20.30;10.38;;;2.20;95.50;;;;;;4965690;28;20027;-91
2021/01/23 03:26:33;;;;;;;20.58;9.13;;;2.20;95.50;;;;;;4961500;28;20054;-93
2021/01/23 03:28:58;;;;;;;18.17;9.02;;;2.20;95.50;;;;;;5010376;28;20050;-92
2021/01/23 03:31:24;;;;;;;20.90;10.35;;;2.20;95.60;;;;;;5073763;28;20032;-92
2021/01/23 03:33:49;;;;;;;16.17;10.15;;;2.20;95.50;;;;;;4997778;28;20023;-92
2021/01/23 03:36:15;;;;;;;20.60;10.85;;;2.20;95.50;;;;;;4968723;28;20078;-92
2021/01/23 03:38:40;;;;;;;20.80;9.93;;;2.30;95.50;;;;;;4972798;28;20033;-93
2021/01/23 03:41:06;;;;;;;18.15;10.48;;;2.30;95.50;;;;;;4969107;28;20034;-92
2021/01/23 03:43:31;;;;;;;19.20;9.85;;;2.30;95.50;;;;;;4960173;28;20042;-93
2021/01/23 03:45:57;;;;;;;18.80;9.93;;;2.30;95.50;;;;;;4978136;28;20438;-93
2021/01/23 03:48:22;;;;;;;17.88;10.40;;;2.40;95.60;;;;;;4967797;28;20110;-91
2021/01/23 03:50:48;;;;;;;19.75;9.85;;;2.40;95.50;;;;;;4969961;28;20032;-92
2021/01/23 03:53:13;;;;;;;23.23;10.43;;;2.40;95.50;;;;;;4954180;28;20047;-93
2021/01/23 03:55:39;;;;;;;15.68;9.98;;;2.40;95.50;;;;;;4970770;28;20038;-93
2021/01/23 03:58:04;;;;;;;15.40;9.50;;;2.50;95.50;;;;;;4983202;28;20487;-93
2021/01/23 04:00:30;;;;;;;16.58;9.80;;;2.50;95.50;;;;;;4970551;28;20039;-92
2021/01/23 04:02:55;;;;;;;20.40;9.93;;;2.50;95.50;;;;;;4969015;28;20023;-93
2021/01/23 04:05:21;;;;;;;17.95;9.65;;;2.60;95.50;;;;;;4988445;28;20053;-94
2021/01/23 04:07:46;;;;;;;15.43;9.27;;;2.60;95.50;;;;;;4991345;28;20478;-92
2021/01/23 04:10:12;;;;;;;15.93;9.65;;;2.60;95.50;;;;;;4980861;28;20053;-93
2021/01/23 04:12:38;;;;;;;22.23;10.57;;;2.60;95.80;;;;;;4993333;28;20026;-93
2021/01/23 04:15:05;;;;;;;20.38;10.23;;;2.70;95.50;;;;;;4966264;28;20036;-93
2021/01/23 04:17:30;;;;;;;19.05;10.05;;;2.70;95.40;;;;;;4976173;28;20386;-93
2021/01/23 04:19:56;;;;;;;17.50;9.93;;;2.70;95.40;;;;;;4992973;28;20028;-93
2021/01/23 04:22:21;;;;;;;19.40;9.65;;;2.70;95.40;;;;;;4975279;28;20084;-92
2021/01/23 04:24:47;;;;;;;16.90;8.80;;;2.70;95.50;;;;;;4974464;28;20086;-92
2021/01/23 04:27:12;;;;;;;17.38;10.25;;;2.80;95.50;;;;;;4980524;28;20054;-93
2021/01/23 04:29:38;;;;;;;19.48;9.95;;;2.80;95.50;;;;;;5056026;28;20018;-93
2021/01/23 04:32:03;;;;;;;21.40;10.13;;;2.80;95.50;;;;;;4974086;28;20415;-93
2021/01/23 04:34:29;;;;;;;20.05;9.95;;;2.80;95.40;;;;;;4983478;28;20066;-94
2021/01/23 04:36:54;;;;;;;18.70;10.32;;;2.80;95.40;;;;;;4991193;28;20045;-94
2021/01/23 04:39:20;;;;;;;19.40;10.82;;;2.80;95.40;;;;;;4979899;28;20368;-91
2021/01/23 04:41:45;;;;;;;17.02;9.13;;;2.80;95.40;;;;;;4983532;28;20038;-92
2021/01/23 04:44:11;;;;;;;19.88;9.70;;;2.80;95.40;;;;;;4973103;28;20027;-92
2021/01/23 04:46:38;;;;;;;20.92;10.43;;;2.70;95.40;;;;;;4974310;28;20026;-93
2021/01/23 04:49:04;;;;;;;17.33;9.38;;;2.70;95.50;;;;;;5005085;28;20025;-91
2021/01/23 04:51:29;;;;;;;17.55;10.05;;;2.70;95.40;;;;;;4973177;28;20023;-94
2021/01/23 04:53:55;;;;;;;22.13;9.63;;;2.70;95.40;;;;;;4984473;28;20027;-93
2021/01/23 04:56:21;;;;;;;18.88;10.02;;;2.70;95.40;;;;;;4973433;28;20038;-91
2021/01/23 04:58:47;;;;;;;15.90;9.18;;;2.70;95.40;;;;;;4978055;28;20452;-91
2021/01/23 05:01:15;;;;;;;17.88;9.10;;;2.60;95.40;;;;;;4983960;28;20121;-91
2021/01/23 05:04:01;;;;;;;21.92;9.45;;;2.60;95.50;;;;;;5025511;28;20083;-92
2021/01/23 05:06:28;;;;;;;17.13;9.38;;;2.60;95.50;;;;;;4972975;28;20035;-92
2021/01/23 05:08:54;;;;;;;16.85;9.38;;;2.50;95.50;;;;;;4983853;28;20031;-92
2021/01/23 05:11:20;;;;;;;19.55;9.98;;;2.50;95.50;;;;;;4991684;28;20029;-89
2021/01/23 05:14:14;;;;;;;14.88;8.98;;;2.50;95.60;;;;;;5010659;28;20021;-92
2021/01/23 05:16:40;;;;;;;17.60;9.35;;;2.40;95.60;;;;;;5036756;28;20039;-90
2021/01/23 05:19:07;;;;;;;20.73;10.63;;;2.40;95.70;;;;;;4986076;28;20027;-93
2021/01/23 05:21:33;;;;;;;20.23;11.23;;;2.40;95.70;;;;;;4972412;28;20360;-93
2021/01/23 05:24:05;;;;;;;19.45;10.85;;;2.40;95.70;;;;;;4973841;28;20487;-92
2021/01/23 05:26:30;;;;;;;21.67;10.35;;;2.40;95.80;;;;;;4969935;28;20059;-92
2021/01/23 05:29:09;;;;;;;17.67;9.60;;;2.40;95.80;;;;;;4979652;28;20023;-94
2021/01/23 05:31:34;;;;;;;20.75;10.18;;;2.40;95.80;;;;;;4974972;28;20031;-92
2021/01/23 05:34:00;;;;;;;18.02;10.50;;;2.40;95.80;;;;;;4974138;28;20023;-92
2021/01/23 05:36:26;;;;;;;20.80;10.65;;;2.40;95.70;;;;;;4972516;28;20125;-93
2021/01/23 05:38:51;;;;;;;18.33;10.07;;;2.40;95.70;;;;;;4977471;28;20014;-93
2021/01/23 05:41:17;;;;;;;24.20;12.32;;;2.40;95.80;;;;;;4989659;28;20079;-91
2021/01/23 05:43:44;;;;;;;20.92;10.90;;;2.30;95.80;;;;;;4975804;28;20058;-92
2021/01/23 05:46:30;;;;;;;24.13;10.68;;;2.30;95.90;;;;;;4996848;28;20032;-93
2021/01/23 05:48:56;;;;;;;18.20;10.52;;;2.30;95.80;;;;;;5033860;28;20024;-94
2021/01/23 05:51:23;;;;;;;20.73;11.32;;;2.20;95.80;;;;;;4986092;28;20037;-91
2021/01/23 05:53:49;;;;;;;18.35;10.77;;;2.20;95.90;;;;;;4973344;28;20121;-92
2021/01/23 05:56:15;;;;;;;19.90;11.10;;;2.20;95.90;;;;;;4973787;28;20106;-91
2021/01/23 05:58:43;;;;;;;19.00;10.48;;;2.10;95.90;;;;;;4972487;28;20031;-91
2021/01/23 06:01:20;;;;;;;21.38;11.35;;;2.10;96.30;;;;;;4971953;28;20072;-92
2021/01/23 06:03:51;;;;;;;22.20;11.40;;;2.10;96.00;;;;;;4972452;28;20061;-93
2021/01/23 06:06:16;;;;;;;24.05;12.20;;;2.10;96.10;;;;;;4993720;28;20397;-91
2021/01/23 06:08:44;;;;;;;19.63;10.80;;;2.10;96.20;;;;;;4979118;28;20122;-90
2021/01/23 06:11:18;;;;;;;20.88;11.45;;;2.10;96.20;;;;;;4964642;28;20031;-92
2021/01/23 06:13:56;;;;;;;18.45;9.93;;;2.20;96.20;;;;;;4980749;28;20019;-92
2021/01/23 06:16:34;;;;;;;17.98;10.80;;;2.20;96.20;;;;;;4970920;28;20046;-93
2021/01/23 06:18:59;;;;;;;26.13;12.02;;;2.20;96.20;;;;;;4972816;28;20031;-93
2021/01/23 06:21:52;;;;;;;23.30;12.82;;;2.20;96.30;;;;;;4973898;28;20049;-93
2021/01/23 06:24:41;;;;;;;19.67;10.60;;;2.20;96.30;;;;;;4973628;28;20392;-91
2021/01/23 06:27:07;;;;;;;23.92;12.15;;;2.20;96.30;;;;;;4972044;28;20043;-94
2021/01/23 06:29:38;;;;;;;23.55;11.77;;;2.30;96.40;;;;;;4971924;28;20108;-94
2021/01/23 06:32:13;;;;;;;24.58;12.90;;;2.30;96.50;;;;;;5000584;28;20031;-93
2021/01/23 06:34:45;;;;;;;23.33;12.23;;;2.40;96.60;;;;;;4966916;28;20024;-92
2021/01/23 06:37:39;;;;;;;23.40;11.90;;;2.50;96.50;;;;;;4973143;28;20032;-93
2021/01/23 06:40:08;;;;;;;22.80;11.85;;;2.60;96.50;;;;;;4969518;28;20027;-94
2021/01/23 06:42:36;;;;;;;25.50;13.23;;;2.60;96.50;;;;;;4973051;28;20499;-91
2021/01/23 06:45:10;;;;;;;22.58;12.18;;;2.70;96.40;;;;;;4981493;28;20030;-94
2021/01/23 06:47:45;;;;;;;26.98;12.98;;;2.70;96.30;;;;;;4979955;28;20033;-93
2021/01/23 06:50:11;;;;;;;21.92;12.57;;;2.70;96.30;;;;;;4991425;28;20050;-93
2021/01/23 06:52:48;;;;;;;27.20;13.70;;;2.80;96.30;;;;;;4983573;28;20092;-92
2021/01/23 06:55:13;;;;;;;23.83;12.40;;;2.80;96.20;;;;;;4971777;28;20038;-93
2021/01/23 06:57:44;;;;;;;22.45;13.30;;;2.80;96.20;;;;;;4971481;28;20023;-92
2021/01/23 07:00:10;;;;;;;20.73;12.00;;;2.80;96.10;;;;;;4972982;28;20441;-93
2021/01/23 07:02:35;;;;;;;25.35;13.20;;;2.80;96.10;;;;;;4975321;28;20450;-93
2021/01/23 07:05:06;;;;;;;25.42;12.63;;;2.70;96.10;;;;;;4988713;28;20062;-94
2021/01/23 07:07:37;;;;;;;26.05;13.55;;;2.70;96.00;;;;;;4969670;28;20049;-93
2021/01/23 07:10:05;;;;;;;26.30;12.48;;;2.60;95.90;;;;;;4966083;28;20031;-93
2021/01/23 07:12:41;;;;;;;23.98;12.57;;;2.60;96.00;;;;;;4970047;28;20030;-92
2021/01/23 07:15:33;;;;;;;22.15;11.35;;;2.50;96.10;;;;;;4969472;28;20062;-93
2021/01/23 07:18:10;;;;;;;19.40;11.00;;;2.50;96.20;;;;;;4952702;28;20518;-94
2021/01/23 07:20:35;;;;;;;27.30;11.23;;;2.50;96.30;;;;;;4961611;28;20574;-94
2021/01/23 07:23:01;;;;;;;24.63;11.23;;;2.60;96.30;;;;;;4956122;28;20047;-93
2021/01/23 07:25:27;;;;;;;23.10;11.52;;;2.60;96.30;;;;;;4960119;28;20059;-95
2021/01/23 07:27:53;;;;;;;22.13;11.48;;;2.60;96.40;;;;;;4971792;28;20103;-95
2021/01/23 07:30:19;;;;;;;19.77;11.40;;;2.70;96.40;;;;;;4959931;28;20034;-94
2021/01/23 07:32:46;;;;;;;20.17;11.88;;;2.70;96.30;;;;;;4973145;28;20032;-94
2021/01/23 07:35:13;;;;;;;19.77;10.90;;;2.70;96.40;;;;;;4974292;28;20061;-93
2021/01/23 07:37:48;;;;;;;24.02;11.45;;;2.70;96.30;;;;;;4968449;28;20563;-94
2021/01/23 07:40:25;;;;;;;22.13;11.57;;;2.70;96.30;;;;;;4969735;28;20042;-94
2021/01/23 07:42:52;;;;;;;21.70;11.20;;;2.70;96.20;;;;;;4979992;28;20030;-94
2021/01/23 07:45:19;;;;;;;22.88;11.77;;;2.70;96.20;;;;;;4972252;28;20038;-94
2021/01/23 07:48:05;;;;;;;22.77;11.70;;;2.70;96.20;;;;;;4986808;28;20479;-93
2021/01/23 07:50:45;;;;;;;19.25;11.15;;;2.80;96.30;;;;;;4965424;28;20459;-93
2021/01/23 07:53:24;;;;;;;20.95;11.20;;;2.80;96.40;;;;;;4971273;28;20038;-93
2021/01/23 07:55:53;;;;;;;19.83;10.73;;;2.90;96.40;;;;;;4973418;28;20097;-95
2021/01/23 07:58:19;;;;;;;21.55;11.75;;;2.90;96.40;;;;;;4969067;28;20030;-94
2021/01/23 08:00:46;;;;;;;23.95;12.27;;;3.00;96.40;;;;;;4969858;28;20027;-94
2021/01/23 08:03:12;;;;;;;22.05;11.65;;;3.10;96.40;;;;;;4968722;28;20035;-94
2021/01/23 08:05:51;;;;;;;26.92;11.45;;;3.20;96.30;;;;;;4963131;28;20031;-94
2021/01/23 08:08:31;;;;;;;22.83;11.10;;;3.20;96.20;;;;;;4986872;28;20034;-93
2021/01/23 08:10:58;;;;;;;21.85;10.95;;;3.30;96.20;;;;;;4964415;28;20026;-93
2021/01/23 08:13:29;;;;;;;21.20;10.93;;;3.40;96.20;;;;;;4982598;28;20026;-92
2021/01/23 08:16:14;;;;;;;17.67;10.70;;;3.40;96.00;;;;;;4969577;28;20046;-92
2021/01/23 08:18:42;;;;;;;23.80;10.57;;;3.50;96.00;;;;;;4968296;28;20034;-94
2021/01/23 08:21:18;;;;;;;16.85;9.00;;;3.50;96.00;;;;;;4994179;28;20114;-94
2021/01/23 08:23:44;;;;;;;16.88;10.57;;;3.60;95.90;;;;;;4968403;28;20059;-92
2021/01/23 08:26:09;;;;;;;21.00;10.40;;;3.60;95.90;;;;;;4959565;28;20044;-93
2021/01/23 08:28:43;;;;;;;21.25;8.95;;;3.70;95.80;;;;;;4952527;28;20061;-94
2021/01/23 08:31:12;;;;;;;15.30;9.00;;;3.70;95.80;;;;;;4965779;28;20066;-94
2021/01/23 08:33:38;;;;;;;17.95;9.48;;;3.80;95.80;;;;;;4967408;28;20034;-93
2021/01/23 08:36:04;;;;;;;17.13;9.32;;;3.80;95.80;;;;;;4967944;28;20039;-96
2021/01/23 08:38:29;;;;;;;21.88;9.18;;;3.90;95.60;;;;;;4964360;28;20026;-96
2021/01/23 08:40:55;;;;;;;17.60;8.73;;;4.00;95.50;;;;;;4975176;28;20027;-93
2021/01/23 08:43:21;;;;;;;16.17;8.57;;;4.10;95.40;;;;;;4974529;28;20031;-94
2021/01/23 08:45:46;;;;;;;19.80;8.82;;;4.10;95.20;;;;;;4972950;28;20024;-96
2021/01/23 08:48:12;;;;;;;14.10;8.88;;;4.10;95.00;;;;;;4974714;28;20059;-95
2021/01/23 08:50:38;;;;;;;16.52;8.52;;;4.10;94.90;;;;;;4975743;28;20030;-94
2021/01/23 08:53:03;;;;;;;15.73;7.32;;;4.10;94.90;;;;;;4974375;28;20026;-95
2021/01/23 08:55:29;;;;;;;13.65;7.78;;;4.10;95.00;;;;;;4979672;28;20129;-95
2021/01/23 08:57:54;;;;;;;15.48;8.35;;;4.10;95.00;;;;;;4976976;28;20031;-95
2021/01/23 09:00:20;;;;;;;18.58;8.68;;;4.20;94.90;;;;;;4979184;28;20031;-93
2021/01/23 09:02:45;;;;;;;13.57;8.05;;;4.30;94.70;;;;;;4974462;28;20084;-94
2021/01/23 09:05:12;;;;;;;14.13;8.05;;;4.30;94.60;;;;;;4973793;28;20114;-94
2021/01/23 09:07:39;;;;;;;18.35;7.65;;;4.40;94.50;;;;;;4960402;28;20035;-94
2021/01/23 09:10:09;;;;;;;17.48;8.55;;;4.40;94.40;;;;;;4971179;28;20023;-93
2021/01/23 09:12:34;;;;;;;17.25;7.70;;;4.40;94.30;;;;;;4973831;28;20502;-94
2021/01/23 09:15:00;;;;;;;18.48;8.13;;;4.40;94.30;;;;;;4973454;28;20034;-95
2021/01/23 09:17:26;;;;;;;15.77;7.80;;;4.30;94.30;;;;;;4973434;28;20095;-94
2021/01/23 09:19:51;;;;;;;15.75;7.32;;;4.40;94.40;;;;;;4974314;28;20026;-94
2021/01/23 09:22:17;;;;;;;17.58;8.50;;;4.40;94.40;;;;;;4978212;28;20134;-92
2021/01/23 09:24:42;;;;;;;12.57;6.95;;;4.50;94.40;;;;;;4974408;28;20039;-93
2021/01/23 09:27:08;;;;;;;12.60;6.03;;;4.50;94.30;;;;;;4974145;28;20053;-94
2021/01/23 09:29:33;;;;;;;15.52;7.30;;;4.60;94.20;;;;;;4972755;28;20493;-95
2021/01/23 09:32:01;;;;;;;13.15;6.22;;;4.70;94.30;;;;;;4964147;28;20023;-93
2021/01/23 09:34:27;;;;;;;9.38;5.75;;;4.70;93.90;;;;;;4973820;28;20030;-93
2021/01/23 09:36:53;;;;;;;14.15;6.45;;;4.80;93.80;;;;;;4972479;28;20055;-91
2021/01/23 09:39:18;;;;;;;11.95;6.30;;;4.80;93.70;;;;;;4972874;28;20019;-92
2021/01/23 09:41:43;;;;;;;12.98;6.28;;;4.80;93.70;;;;;;4972808;28;20029;-95
2021/01/23 09:44:10;;;;;;;11.73;5.15;;;4.80;93.60;;;;;;4972814;28;20046;-94
2021/01/23 09:46:35;;;;;;;10.88;5.53;;;4.90;93.50;;;;;;4958069;28;20027;-92
2021/01/23 09:49:01;;;;;;;13.35;5.40;;;4.90;93.40;;;;;;4969245;28;20019;-91
2021/01/23 09:51:26;;;;;;;12.55;5.72;;;4.90;93.40;;;;;;4968725;28;20129;-91
2021/01/23 09:53:52;;;;;;;10.95;5.25;;;5.00;93.20;;;;;;4962435;28;20026;-92
2021/01/23 09:56:17;;;;;;;12.35;5.90;;;5.00;93.20;;;;;;4972903;28;20046;-91
2021/01/23 09:58:43;;;;;;;10.05;4.90;;;5.00;93.10;;;;;;4972407;28;20523;-93
2021/01/23 10:01:08;;;;;;;15.02;6.72;;;5.10;93.10;;;;;;4959545;28;20035;-92
2021/01/23 10:03:34;;;;;;;8.85;4.40;;;5.10;93.00;;;;;;4968063;28;20053;-91
2021/01/23 10:05:59;;;;;;;10.95;4.38;;;5.10;93.00;;;;;;4962821;28;20035;-93
2021/01/23 10:08:25;;;;;;;7.65;4.70;;;5.10;92.60;;;;;;4972324;28;20026;-93
2021/01/23 10:10:50;;;;;;;8.88;4.50;;;5.20;92.40;;;;;;5018617;28;20032;-91
2021/01/23 10:13:16;;;;;;;8.65;4.03;;;5.20;92.40;;;;;;4979994;28;20049;-92
2021/01/23 10:15:41;;;;;;;11.27;4.60;;;5.20;92.30;;;;;;5033535;28;20045;-93
2021/01/23 10:18:07;;;;;;;7.55;4.28;;;5.20;92.10;;;;;;4966502;28;20037;-92
2021/01/23 10:20:33;;;;;;;10.18;3.97;;;5.30;91.90;;;;;;4976141;28;20501;-91
2021/01/23 10:22:59;;;;;;;10.43;4.22;;;5.30;91.60;;;;;;5017202;28;20501;-91
2021/01/23 10:25:24;;;;;;;8.00;3.83;;;5.30;91.60;;;;;;4963082;28;20326;-92
2021/01/23 10:27:50;;;;;;;7.75;3.20;;;5.30;91.60;;;;;;4959628;28;20054;-91
2021/01/23 10:30:17;;;;;;;9.70;3.53;;;5.40;91.60;;;;;;4967578;28;20055;-91
2021/01/23 10:32:42;;;;;;;5.68;3.00;;;5.40;91.40;;;;;;4963310;28;20407;-91
2021/01/23 10:35:09;;;;;;;8.05;3.75;;;5.40;91.20;;;;;;4968880;28;20031;-90
2021/01/23 10:37:35;;;;;;;8.70;3.00;;;5.50;91.30;;;;;;4963833;28;20435;-92
2021/01/23 10:40:02;;;;;;;8.20;3.28;;;5.50;91.10;;;;;;4978357;28;20102;-92
2021/01/23 10:42:27;;;;;;;6.10;3.25;;;5.50;91.20;;;;;;4970578;28;20023;-94
2021/01/23 10:44:53;;;;;;;7.55;2.67;;;5.60;91.20;;;;;;4976666;28;20052;-92
2021/01/23 10:47:18;;;;;;;7.68;2.85;;;5.70;91.10;;;;;;4968343;28;20042;-92
2021/01/23 10:49:45;;;;;;;6.95;2.85;;;5.60;90.90;;;;;;4979996;28;20023;-92
2021/01/23 10:52:10;;;;;;;6.38;2.67;;;5.60;90.80;;;;;;5012911;28;20032;-94
2021/01/23 10:54:36;;;;;;;11.82;3.60;;;5.60;90.60;;;;;;4983779;28;20511;-91
2021/01/23 10:57:03;;;;;;;9.55;4.22;;;5.70;90.70;;;;;;4969990;28;20049;-91
2021/01/23 10:59:29;;;;;;;8.48;3.13;;;5.70;90.80;;;;;;4960389;28;20030;-93
2021/01/23 11:01:55;;;;;;;7.43;3.50;;;5.80;90.60;;;;;;5010740;28;20087;-92
2021/01/23 11:04:20;;;;;;;7.47;3.33;;;5.80;90.70;;;;;;4987058;28;20127;-93
2021/01/23 11:06:46;;;;;;;5.43;2.55;;;5.80;90.70;;;;;;4980721;28;20035;-92
2021/01/23 11:09:12;;;;;;;9.35;3.20;;;5.90;90.20;;;;;;5022327;28;20058;-91
2021/01/23 11:11:40;;;;;;;5.22;2.80;;;5.90;90.10;;;;;;4973709;28;20031;-92
2021/01/23 11:14:05;;;;;;;6.68;2.92;;;6.00;90.00;;;;;;4970899;28;20023;-94
2021/01/23 11:16:31;;;;;;;9.23;3.03;;;6.00;89.80;;;;;;4970405;28;20038;-92
2021/01/23 11:18:57;;;;;;;6.90;2.67;;;6.00;89.90;;;;;;4973641;28;20090;-92
2021/01/23 11:21:23;;;;;;;10.20;3.30;;;6.10;90.00;;;;;;4974606;28;20037;-93
2021/01/23 11:23:49;;;;;;;7.78;3.03;;;6.20;90.00;;;;;;4973129;28;20031;-93
2021/01/23 11:26:14;;;;;;;7.97;3.28;;;6.20;89.60;;;;;;4972196;28;20046;-93
2021/01/23 11:28:40;;;;;;;10.63;3.53;;;6.20;89.50;;;;;;4971067;28;20488;-93
2021/01/23 11:31:06;;;;;;;9.57;2.65;;;6.20;89.60;;;;;;4972500;28;20035;-93
2021/01/23 11:33:32;;;;;;;6.28;2.25;;;6.20;89.20;;;;;;4973237;28;20038;-92
2021/01/23 11:35:58;;;;;;;9.57;2.90;;;6.10;88.80;;;;;;4971296;28;20050;-92
2021/01/23 11:38:23;;;;;;;10.52;2.63;;;6.00;88.90;;;;;;4973535;28;20132;-93
2021/01/23 11:40:49;;;;;;;5.75;2.55;;;6.00;89.20;;;;;;4965966;28;20042;-92
2021/01/23 11:43:18;;;;;;;7.00;3.10;;;6.00;89.30;;;;;;4973194;28;20118;-92
2021/01/23 11:45:43;;;;;;;8.77;2.53;;;6.00;89.20;;;;;;4962110;28;20113;-91
2021/01/23 11:48:09;;;;;;;7.03;3.03;;;5.90;89.40;;;;;;4989083;28;20118;-92
2021/01/23 11:50:36;;;;;;;7.80;3.17;;;5.80;89.40;;;;;;4987941;28;20033;-93
2021/01/23 11:53:02;;;;;;;7.15;2.53;;;5.70;89.40;;;;;;4970930;28;20082;-92
2021/01/23 11:55:27;;;;;;;8.90;3.10;;;5.70;89.60;;;;;;4971237;28;20047;-91
2021/01/23 11:57:53;;;;;;;6.80;2.50;;;5.60;89.70;;;;;;4962655;28;20026;-92
2021/01/23 12:00:19;;;;;;;9.43;3.35;;;5.50;89.90;;;;;;4981215;28;20035;-91
2021/01/23 12:02:45;;;;;;;11.45;3.22;;;5.50;90.00;;;;;;4970948;28;20031;-91
2021/01/23 12:05:11;;;;;;;13.85;4.40;;;5.40;90.00;;;;;;4971918;28;20084;-91
2021/01/23 12:07:37;;;;;;;8.00;4.15;;;5.40;90.10;;;;;;4995297;28;20030;-93
2021/01/23 12:10:03;;;;;;;10.18;4.00;;;5.40;90.20;;;;;;4978512;28;20105;-91
2021/01/23 12:12:29;;;;;;;10.73;4.45;;;5.30;90.20;;;;;;4969171;28;20031;-91
2021/01/23 12:14:54;;;;;;;11.85;4.30;;;5.30;90.50;;;;;;4969906;28;20027;-93
2021/01/23 12:17:21;;;;;;;11.32;4.72;;;5.40;90.30;;;;;;4978656;28;20410;-92
2021/01/23 12:19:47;;;;;;;8.98;3.63;;;5.30;90.30;;;;;;4970383;28;20030;-90
2021/01/23 12:22:12;;;;;;;7.93;4.22;;;5.30;90.40;;;;;;4967300;28;20403;-93
2021/01/23 12:24:39;;;;;;;10.15;3.80;;;5.30;90.40;;;;;;4960518;28;20399;-91
2021/01/23 12:27:04;;;;;;;8.15;4.65;;;5.40;90.40;;;;;;4972193;28;20498;-92
2021/01/23 12:29:30;;;;;;;8.50;3.70;;;5.40;90.40;;;;;;5002998;28;20038;-92
2021/01/23 12:31:57;;;;;;;8.45;3.58;;;5.50;90.50;;;;;;4974767;28;20035;-92
2021/01/23 12:34:26;;;;;;;6.90;3.95;;;5.50;90.40;;;;;;4973564;28;20034;-93
2021/01/23 12:36:52;;;;;;;9.85;4.20;;;5.60;90.60;;;;;;4977516;28;20039;-91
2021/01/23 12:39:17;;;;;;;13.80;4.07;;;5.60;90.30;;;;;;4992520;28;20080;-93
2021/01/23 12:41:43;;;;;;;11.80;5.30;;;5.60;90.30;;;;;;4975056;28;20038;-92
2021/01/23 12:44:08;;;;;;;5.88;3.60;;;5.60;90.30;;;;;;4976047;28;20023;-92
2021/01/23 12:46:33;;;;;;;12.65;3.58;;;5.70;90.30;;;;;;4973737;28;20084;-92